Time;durP1;ratioP1;P1;durP2;ratioP2;P2;SDS_P1;SDS_P2;PMS_P1;PMS_P2;Temp;Humidity;BMP_temperature;BMP_pressure;BME280_temperature;BME280_humidity;BME280_pressure;Samples;Min_cycle;Max_cycle;Signal;HPM_P1;HPM_P2
2022/08/14 00:00:59;;;;;;;11.43;6.07;;;22.80;96.20;;;;;;5035050;28;20073;-62
2022/08/14 00:03:27;;;;;;;8.07;5.93;;;22.70;98.60;;;;;;5034957;28;20111;-63
2022/08/14 00:05:55;;;;;;;8.40;6.22;;;22.70;96.80;;;;;;5035037;28;20456;-63
2022/08/14 00:08:21;;;;;;;10.48;5.82;;;22.60;97.10;;;;;;5035104;28;20038;-63
2022/08/14 00:10:47;;;;;;;8.38;6.43;;;22.60;97.20;;;;;;5035111;28;20042;-63
2022/08/14 00:13:13;;;;;;;9.27;5.78;;;22.60;97.30;;;;;;5034938;28;20409;-63
2022/08/14 00:15:43;;;;;;;8.70;5.80;;;22.60;97.50;;;;;;5035240;28;20049;-63
2022/08/14 00:18:12;;;;;;;9.80;6.53;;;22.60;97.80;;;;;;5035047;28;20048;-63
2022/08/14 00:20:40;;;;;;;8.90;6.38;;;22.50;98.00;;;;;;5034835;28;20489;-63
2022/08/14 00:23:07;;;;;;;10.10;5.95;;;22.30;99.90;;;;;;5034884;28;20386;-63
2022/08/14 00:25:33;;;;;;;9.90;5.95;;;22.40;98.40;;;;;;5034814;28;20041;-62
2022/08/14 00:27:59;;;;;;;6.57;5.93;;;22.40;99.90;;;;;;5035028;28;20037;-62
2022/08/14 00:30:25;;;;;;;11.48;6.57;;;22.20;99.90;;;;;;5017126;28;20190;-63
2022/08/14 00:32:50;;;;;;;7.80;6.15;;;22.30;99.00;;;;;;5017205;28;20045;-62
2022/08/14 00:35:16;;;;;;;7.60;6.40;;;22.30;99.10;;;;;;5034718;28;20116;-62
2022/08/14 00:37:44;;;;;;;8.38;6.03;;;22.30;99.20;;;;;;5034674;28;20037;-63
2022/08/14 00:40:13;;;;;;;9.20;6.20;;;22.30;99.40;;;;;;5034409;28;20167;-63
2022/08/14 00:42:39;;;;;;;9.50;6.18;;;22.20;99.90;;;;;;5034470;28;20045;-63
2022/08/14 00:45:07;;;;;;;11.32;6.50;;;22.20;99.80;;;;;;5034660;28;20385;-63
2022/08/14 00:47:34;;;;;;;8.50;6.55;;;22.20;99.90;;;;;;5034519;28;20034;-63
2022/08/14 00:50:01;;;;;;;8.90;6.25;;;22.20;99.90;;;;;;5034302;28;20045;-63
2022/08/14 00:52:27;;;;;;;8.90;6.45;;;22.10;99.90;;;;;;5034325;28;20037;-63
2022/08/14 00:54:53;;;;;;;12.48;6.50;;;22.10;99.90;;;;;;5016388;28;20052;-63
2022/08/14 00:57:20;;;;;;;11.93;6.40;;;22.00;99.90;;;;;;5034317;28;20041;-62
2022/08/14 00:59:50;;;;;;;9.25;6.57;;;22.00;99.90;;;;;;5070412;23;20381;31
2022/08/14 01:02:18;;;;;;;9.65;6.35;;;25.00;99.90;;;;;;4934675;29;20073;-76
2022/08/14 01:04:45;;;;;;;8.55;6.45;;;22.00;99.90;;;;;;4918136;29;20055;-76
2022/08/14 01:07:19;;;;;;;10.10;6.53;;;21.80;99.90;;;;;;4934800;29;20035;-76
2022/08/14 01:09:47;;;;;;;9.88;6.50;;;21.90;99.90;;;;;;4902238;29;20130;-76
2022/08/14 01:12:15;;;;;;;9.57;6.40;;;21.90;99.90;;;;;;4917927;29;20043;-76
2022/08/14 01:14:41;;;;;;;7.35;6.30;;;21.80;99.90;;;;;;4918123;29;20043;-76
2022/08/14 01:17:06;;;;;;;11.45;6.65;;;22.60;99.90;;;;;;4917784;29;20054;-76
2022/08/14 01:22:17;;;;;;;15.65;6.68;;;21.80;99.90;;;;;;4935268;29;20086;-76
2022/08/14 01:24:43;;;;;;;8.05;6.60;;;19.10;99.90;;;;;;4933628;29;20065;-76
2022/08/14 01:27:16;;;;;;;8.77;6.63;;;21.80;99.90;;;;;;4934972;29;20056;-76
2022/08/14 01:29:44;;;;;;;13.32;6.75;;;21.80;99.90;;;;;;4934831;29;20059;-76
2022/08/14 01:32:11;;;;;;;11.18;7.10;;;21.70;99.90;;;;;;4934586;29;20811;-76
2022/08/14 01:34:36;;;;;;;12.40;6.38;;;21.60;99.90;;;;;;4940549;29;20047;-76
2022/08/14 01:37:06;;;;;;;10.35;6.60;;;21.60;99.90;;;;;;4953844;29;20051;-76
2022/08/14 01:39:31;;;;;;;9.63;6.50;;;21.50;99.90;;;;;;4936139;29;20085;-76
2022/08/14 01:41:59;;;;;;;9.50;6.78;;;21.60;99.90;;;;;;4953775;29;20067;-76
2022/08/14 01:44:30;;;;;;;9.75;6.80;;;21.50;99.90;;;;;;4953654;29;20043;-76
2022/08/14 01:46:57;;;;;;;10.48;6.63;;;21.50;99.90;;;;;;4953633;29;20047;-76
2022/08/14 01:49:24;;;;;;;8.50;6.78;;;21.40;99.90;;;;;;4936711;29;20089;-76
2022/08/14 01:51:55;;;;;;;10.43;6.70;;;21.40;99.90;;;;;;4936515;29;20043;-76
2022/08/14 01:54:23;;;;;;;16.70;7.05;;;21.40;99.90;;;;;;4936073;29;20061;-75
2022/08/14 01:56:56;;;;;;;8.60;6.78;;;21.40;99.90;;;;;;4936312;29;20066;-76
2022/08/14 01:59:32;;;;;;;9.68;6.57;;;21.20;99.90;;;;;;4953406;29;20179;-76
2022/08/14 02:02:02;;;;;;;9.18;6.80;;;21.30;99.90;;;;;;4953709;28;20125;-76
2022/08/14 02:04:31;;;;;;;8.93;6.88;;;21.90;99.90;;;;;;4953972;29;20063;-76
2022/08/14 02:06:57;;;;;;;10.88;6.35;;;21.20;99.90;;;;;;4953523;29;20075;-76
2022/08/14 02:09:23;;;;;;;9.40;7.25;;;21.20;99.90;;;;;;4953723;29;20071;-76
2022/08/14 02:11:50;;;;;;;8.40;6.50;;;22.70;99.90;;;;;;4953444;29;20035;-76
2022/08/14 02:14:16;;;;;;;10.93;7.47;;;21.20;99.90;;;;;;4936403;29;20132;-76
2022/08/14 02:16:51;;;;;;;10.85;7.10;;;21.20;99.90;;;;;;4936469;29;20403;-76
2022/08/14 02:19:19;;;;;;;12.63;7.47;;;21.10;99.90;;;;;;4953443;29;20050;-76
2022/08/14 02:21:47;;;;;;;9.40;7.28;;;20.60;99.90;;;;;;4953586;29;20146;-76
2022/08/14 02:24:14;;;;;;;8.77;7.28;;;21.00;99.90;;;;;;4953085;29;20570;-76
2022/08/14 02:26:46;;;;;;;11.30;7.03;;;21.10;99.90;;;;;;4953604;29;20135;-76
2022/08/14 02:29:16;;;;;;;12.25;7.43;;;21.10;99.90;;;;;;4936372;29;20455;-76
2022/08/14 02:31:45;;;;;;;9.55;7.60;;;21.00;99.90;;;;;;4952338;29;20051;-76
2022/08/14 02:34:17;;;;;;;10.32;7.25;;;21.00;99.90;;;;;;4936161;29;20577;-76
2022/08/14 02:36:45;;;;;;;8.60;7.55;;;21.00;99.90;;;;;;4953138;29;20056;-76
2022/08/14 02:39:12;;;;;;;9.88;7.20;;;21.00;99.90;;;;;;4936104;29;20047;-76
2022/08/14 02:41:38;;;;;;;9.02;7.28;;;21.00;99.90;;;;;;4952260;29;20062;-76
2022/08/14 02:44:06;;;;;;;11.68;7.25;;;21.00;99.90;;;;;;4952297;29;20047;-76
2022/08/14 02:46:32;;;;;;;11.57;7.15;;;22.60;99.90;;;;;;4953121;29;20066;-76
2022/08/14 02:48:58;;;;;;;11.35;7.70;;;20.90;99.90;;;;;;4953190;29;20047;-75
2022/08/14 02:51:25;;;;;;;9.65;7.47;;;20.90;99.90;;;;;;4953066;29;20087;-76
2022/08/14 02:53:53;;;;;;;14.68;7.88;;;22.80;99.90;;;;;;4953321;29;20051;-76
2022/08/14 02:56:19;;;;;;;8.90;7.13;;;20.80;99.90;;;;;;4935951;29;20445;-76
2022/08/14 02:58:50;;;;;;;12.85;8.40;;;21.80;99.90;;;;;;4935755;29;20043;-76
2022/08/14 03:01:19;;;;;;;10.32;7.70;;;20.30;99.90;;;;;;4952525;29;20568;-76
2022/08/14 03:03:47;;;;;;;10.43;7.63;;;21.30;99.90;;;;;;4935832;29;20102;-76
2022/08/14 03:06:13;;;;;;;9.63;7.78;;;20.80;99.90;;;;;;4921366;29;20533;-76
2022/08/14 03:08:41;;;;;;;9.52;7.32;;;20.70;99.90;;;;;;4939108;29;20320;-76
2022/08/14 03:11:09;;;;;;;12.60;8.00;;;20.80;99.90;;;;;;4956742;29;20066;-76
2022/08/14 03:13:41;;;;;;;10.25;7.95;;;20.80;99.90;;;;;;4940022;29;20047;-77
2022/08/14 03:16:14;;;;;;;10.88;7.85;;;20.70;99.90;;;;;;4939736;29;20184;-76
2022/08/14 03:18:42;;;;;;;11.70;7.72;;;20.70;99.90;;;;;;4923322;29;20047;-76
2022/08/14 03:21:12;;;;;;;9.15;7.88;;;20.70;99.90;;;;;;4956717;29;20523;-76
2022/08/14 03:23:39;;;;;;;12.90;8.63;;;20.70;99.90;;;;;;4939112;29;20106;-76
2022/08/14 03:26:10;;;;;;;11.98;8.38;;;20.60;99.90;;;;;;4956435;29;20070;-76
2022/08/14 03:28:39;;;;;;;11.30;7.65;;;20.60;99.90;;;;;;4955047;29;20500;-76
2022/08/14 03:31:06;;;;;;;9.45;8.02;;;22.20;99.90;;;;;;4955964;29;20043;-76
2022/08/14 03:33:32;;;;;;;10.30;8.07;;;20.50;99.90;;;;;;4956232;29;20082;-76
2022/08/14 03:35:58;;;;;;;9.82;7.95;;;22.60;99.90;;;;;;4939024;29;20058;-76
2022/08/14 03:38:24;;;;;;;9.75;7.90;;;20.50;99.90;;;;;;4956124;29;20043;-76
2022/08/14 03:40:49;;;;;;;12.40;8.40;;;21.10;99.90;;;;;;4955831;29;20044;-76
2022/08/14 03:43:15;;;;;;;10.82;8.43;;;20.50;99.90;;;;;;4938848;29;20074;-75
2022/08/14 03:45:43;;;;;;;9.68;8.18;;;20.50;99.90;;;;;;4939036;29;20051;-75
2022/08/14 03:48:19;;;;;;;10.57;8.45;;;20.80;99.90;;;;;;4938614;29;20534;-75
2022/08/14 03:50:50;;;;;;;10.98;7.97;;;20.50;99.90;;;;;;4938703;29;20051;-75
2022/08/14 03:53:18;;;;;;;9.77;8.70;;;20.60;99.90;;;;;;4938457;29;20047;-76
2022/08/14 03:55:45;;;;;;;10.45;8.63;;;20.40;99.90;;;;;;4955920;29;20055;-75
2022/08/14 03:58:11;;;;;;;11.60;8.43;;;21.10;99.90;;;;;;4954789;29;20075;-75
2022/08/14 04:00:38;;;;;;;11.70;8.40;;;20.40;99.90;;;;;;4955316;29;20106;-76
2022/08/14 04:03:06;;;;;;;12.10;8.02;;;21.40;99.90;;;;;;4938264;29;20593;-75
2022/08/14 04:05:33;;;;;;;11.63;8.55;;;20.10;99.90;;;;;;4955542;29;20047;-75
2022/08/14 04:08:03;;;;;;;13.48;9.13;;;20.30;99.90;;;;;;4955575;29;20429;-76
2022/08/14 04:10:29;;;;;;;14.75;9.02;;;20.90;99.90;;;;;;4938255;29;20530;-75
2022/08/14 04:12:59;;;;;;;10.85;8.55;;;;;;;;;;4938359;29;20043;-77
2022/08/14 04:15:26;;;;;;;11.30;9.05;;;;;;;;;;4938345;29;20043;-76
2022/08/14 04:17:53;;;;;;;10.90;8.60;;;20.40;99.90;;;;;;4937397;29;20039;-75
2022/08/14 04:20:20;;;;;;;10.32;8.63;;;20.20;99.90;;;;;;4955173;29;20039;-76
2022/08/14 04:22:46;;;;;;;11.35;9.07;;;20.20;99.90;;;;;;4953868;29;20083;-75
2022/08/14 04:25:11;;;;;;;12.05;9.35;;;21.70;99.90;;;;;;4955072;29;20133;-75
2022/08/14 04:27:37;;;;;;;10.32;8.90;;;20.20;99.90;;;;;;4938127;29;20051;-75
2022/08/14 04:30:06;;;;;;;10.77;8.88;;;22.60;99.90;;;;;;4937923;29;20051;-75
2022/08/14 04:32:32;;;;;;;10.25;8.80;;;20.20;99.90;;;;;;4953900;29;20051;-75
2022/08/14 04:34:59;;;;;;;14.02;8.93;;;20.10;99.90;;;;;;4937971;29;20058;-75
2022/08/14 04:43:38;;;;;;;13.02;9.02;;;20.10;99.90;;;;;;4955345;29;20520;-75
2022/08/14 04:45:44;;;;;;;15.35;9.15;;;20.10;99.90;;;;;;4944279;29;20063;-76
2022/08/14 04:48:12;;;;;;;10.63;9.25;;;21.70;99.90;;;;;;4937357;29;20047;-75
2022/08/14 04:50:50;;;;;;;14.65;9.40;;;20.10;99.90;;;;;;4954593;29;20055;-75
2022/08/14 04:53:21;;;;;;;13.73;9.18;;;20.20;99.90;;;;;;4937496;29;20043;-76
2022/08/14 04:55:49;;;;;;;11.73;9.23;;;21.10;99.90;;;;;;4937634;29;20417;-75
2022/08/14 04:58:16;;;;;;;16.10;9.15;;;20.20;99.90;;;;;;4954478;29;20047;-76
2022/08/14 05:00:43;;;;;;;10.70;9.27;;;20.40;99.90;;;;;;4921026;29;20066;-76
2022/08/14 05:03:09;;;;;;;12.65;9.23;;;21.60;99.90;;;;;;4935619;29;20055;-75
2022/08/14 05:05:35;;;;;;;13.25;9.18;;;20.70;99.90;;;;;;4911974;29;20058;-75
2022/08/14 05:08:10;;;;;;;13.27;9.18;;;20.20;99.90;;;;;;4954498;29;20505;-75
2022/08/14 05:10:39;;;;;;;11.73;9.07;;;20.40;99.90;;;;;;4937137;29;20055;-76
2022/08/14 05:13:04;;;;;;;10.75;9.23;;;21.10;99.90;;;;;;4954312;29;20073;-75
2022/08/14 05:15:33;;;;;;;11.02;9.35;;;20.40;99.90;;;;;;4937068;29;20047;-76
2022/08/14 05:18:01;;;;;;;14.13;9.70;;;20.40;99.90;;;;;;4936945;29;20050;-77
2022/08/14 05:20:26;;;;;;;12.57;9.07;;;20.50;99.90;;;;;;4954190;29;20058;-75
2022/08/14 05:22:52;;;;;;;12.23;8.80;;;20.70;99.90;;;;;;4937187;29;20051;-76
2022/08/14 05:25:18;;;;;;;18.70;9.07;;;21.50;99.90;;;;;;4954303;29;20419;-76
2022/08/14 05:27:43;;;;;;;10.85;8.32;;;22.40;99.90;;;;;;4954377;29;20496;-76
2022/08/14 05:30:09;;;;;;;13.98;8.45;;;23.30;99.90;;;;;;4920313;29;20051;-76
2022/08/14 05:32:35;;;;;;;10.52;8.05;;;24.30;99.90;;;;;;4936916;29;20055;-76
2022/08/14 05:35:01;;;;;;;12.02;8.18;;;25.80;99.90;;;;;;4921042;29;20043;-76
2022/08/14 05:37:29;;;;;;;14.68;8.00;;;26.00;98.00;;;;;;4937135;29;20047;-76
2022/08/14 05:39:55;;;;;;;14.75;7.80;;;26.70;95.30;;;;;;4936728;29;20106;-76
2022/08/14 05:42:21;;;;;;;10.13;7.22;;;27.00;93.00;;;;;;4936587;29;20122;-76
2022/08/14 05:44:46;;;;;;;7.88;7.07;;;27.30;91.20;;;;;;4936983;29;20051;-76
2022/08/14 05:47:12;;;;;;;8.77;6.93;;;29.50;90.60;;;;;;4954087;29;20051;-76
2022/08/14 05:49:38;;;;;;;8.13;7.28;;;28.10;86.70;;;;;;4953807;29;20057;-76
2022/08/14 05:52:04;;;;;;;10.50;6.97;;;28.30;83.70;;;;;;4920824;29;20098;-76
2022/08/14 05:54:30;;;;;;;14.52;7.20;;;28.70;81.20;;;;;;4920659;29;20500;-76
2022/08/14 05:56:56;;;;;;;13.05;7.20;;;29.00;79.40;;;;;;4936515;29;20045;-76
2022/08/14 05:59:22;;;;;;;9.27;7.05;;;29.80;76.60;;;;;;4953560;29;20500;-76
2022/08/14 06:01:48;;;;;;;9.10;7.80;;;29.40;74.30;;;;;;4953339;29;20102;-76
2022/08/14 06:04:14;;;;;;;12.43;7.35;;;29.40;72.90;;;;;;4953721;29;20142;-76
2022/08/14 06:06:40;;;;;;;8.57;6.82;;;29.50;72.30;;;;;;4920543;29;20485;-76
2022/08/14 06:09:07;;;;;;;12.20;6.95;;;29.90;72.00;;;;;;4920511;29;20039;-76
2022/08/14 06:11:33;;;;;;;9.07;6.57;;;30.40;69.60;;;;;;4953413;29;20118;-76
2022/08/14 06:13:59;;;;;;;10.07;7.00;;;30.90;67.50;;;;;;4936229;29;20158;-76
2022/08/14 06:16:25;;;;;;;8.05;6.97;;;31.20;65.60;;;;;;4920839;29;20062;-76
2022/08/14 06:18:51;;;;;;;10.20;6.82;;;31.40;64.30;;;;;;4953529;29;20196;-76
2022/08/14 06:21:16;;;;;;;9.25;5.80;;;31.70;63.20;;;;;;4936488;29;20456;-76
2022/08/14 06:23:42;;;;;;;8.90;6.50;;;32.30;61.90;;;;;;4953230;29;20059;-76
2022/08/14 06:26:08;;;;;;;10.82;6.55;;;32.60;60.30;;;;;;4936164;29;20051;-76
2022/08/14 06:28:35;;;;;;;9.85;6.50;;;32.70;59.20;;;;;;4936347;29;20451;-77
2022/08/14 06:31:00;;;;;;;6.97;6.22;;;32.60;58.50;;;;;;4936080;29;20059;-76
2022/08/14 06:33:26;;;;;;;9.93;6.13;;;32.60;58.10;;;;;;4936018;29;20039;-76
2022/08/14 06:35:52;;;;;;;10.18;5.95;;;32.90;58.60;;;;;;4953333;29;20043;-76
2022/08/14 06:38:20;;;;;;;8.25;6.10;;;33.40;56.70;;;;;;4936116;29;20047;-76
2022/08/14 06:40:46;;;;;;;8.65;6.07;;;33.70;55.70;;;;;;4920705;29;20059;-76
2022/08/14 06:43:13;;;;;;;8.45;5.68;;;33.80;54.80;;;;;;4939555;29;20058;-76
2022/08/14 06:45:40;;;;;;;8.68;6.18;;;34.00;54.30;;;;;;4956846;29;20473;-76
2022/08/14 06:48:22;;;;;;;9.27;5.63;;;34.30;53.60;;;;;;4957067;29;20051;-76
2022/08/14 06:50:49;;;;;;;8.27;5.65;;;34.30;53.10;;;;;;4924171;29;20464;-76
2022/08/14 06:53:18;;;;;;;9.35;5.65;;;34.40;52.80;;;;;;4939884;29;20070;-76
2022/08/14 06:55:45;;;;;;;9.07;6.22;;;34.70;52.40;;;;;;4939604;29;20043;-76
2022/08/14 06:58:12;;;;;;;10.18;5.60;;;34.50;52.00;;;;;;4923697;29;20123;-76
2022/08/14 07:00:39;;;;;;;6.35;5.40;;;34.20;52.40;;;;;;4956350;29;20063;-76
2022/08/14 07:05:49;;;;;;;6.68;5.38;;;35.10;51.20;;;;;;4956471;29;20051;-76
2022/08/14 07:08:21;;;;;;;11.43;5.82;;;35.30;50.50;;;;;;4938891;29;20198;-76
2022/08/14 07:10:49;;;;;;;13.95;5.75;;;35.60;49.90;;;;;;4939354;29;20078;-77
2022/08/14 07:13:19;;;;;;;11.68;5.35;;;35.90;49.30;;;;;;4956249;29;20411;-77
2022/08/14 07:15:49;;;;;;;9.32;5.07;;;35.90;49.40;;;;;;4956292;29;20522;-76
2022/08/14 07:18:27;;;;;;;17.20;5.40;;;36.40;48.50;;;;;;4956023;29;20054;-77
2022/08/14 07:20:54;;;;;;;9.73;5.35;;;36.80;47.80;;;;;;4956274;29;20036;-76
2022/08/14 07:23:22;;;;;;;7.88;5.43;;;36.80;46.90;;;;;;4939076;29;20118;-76
2022/08/14 07:25:50;;;;;;;7.15;5.10;;;36.40;46.90;;;;;;4939068;29;20086;-76
2022/08/14 07:28:25;;;;;;;8.50;5.05;;;36.30;47.10;;;;;;4939000;29;20058;-76
2022/08/14 07:30:58;;;;;;;6.65;4.57;;;36.50;47.30;;;;;;4939042;29;20122;-76
2022/08/14 07:33:26;;;;;;;8.23;4.95;;;36.90;46.80;;;;;;4956402;29;20050;-75
2022/08/14 07:35:53;;;;;;;7.25;4.95;;;37.70;46.60;;;;;;4956318;29;20126;-76
2022/08/14 07:38:20;;;;;;;7.68;5.22;;;37.50;45.90;;;;;;4923203;29;20047;-76
2022/08/14 07:40:50;;;;;;;9.98;5.13;;;37.20;45.90;;;;;;4937423;29;20051;-76
2022/08/14 07:43:16;;;;;;;8.63;5.25;;;37.00;46.20;;;;;;4944520;29;20043;-76
2022/08/14 07:45:43;;;;;;;8.32;5.20;;;36.60;46.80;;;;;;4937709;29;20500;-76
2022/08/14 07:48:09;;;;;;;9.55;4.75;;;36.20;47.60;;;;;;4938003;29;20047;-76
2022/08/14 07:50:35;;;;;;;6.82;4.40;;;36.10;48.30;;;;;;4954516;29;20125;-76
2022/08/14 07:53:01;;;;;;;10.82;5.03;;;;;;;;;;4953552;28;20126;-76
2022/08/14 07:55:27;;;;;;;7.43;4.60;;;36.00;48.50;;;;;;4953618;29;20106;-76
2022/08/14 07:57:53;;;;;;;7.05;4.50;;;35.50;49.80;;;;;;4954710;29;20487;-76
2022/08/14 08:00:22;;;;;;;7.85;4.82;;;35.10;50.40;;;;;;4937527;29;20447;-76
2022/08/14 08:02:53;;;;;;;6.95;5.10;;;34.70;51.00;;;;;;4954533;29;20481;-76
2022/08/14 08:05:23;;;;;;;5.65;4.93;;;34.20;51.60;;;;;;4953556;29;20079;-76
2022/08/14 08:07:49;;;;;;;9.32;4.95;;;33.50;52.90;;;;;;4937212;29;20051;-76
2022/08/14 08:10:32;;;;;;;10.65;4.78;;;33.20;53.50;;;;;;4954852;29;20043;-76
2022/08/14 08:13:02;;;;;;;9.43;5.00;;;33.20;54.10;;;;;;4954595;29;20062;-76
2022/08/14 08:15:32;;;;;;;6.07;4.70;;;33.20;54.10;;;;;;4937626;29;20058;-76
2022/08/14 08:18:02;;;;;;;8.07;5.30;;;33.30;54.00;;;;;;4937169;29;20051;-76
2022/08/14 08:20:28;;;;;;;11.20;5.40;;;33.10;54.80;;;;;;4954436;29;20130;-76
2022/08/14 08:22:57;;;;;;;6.93;5.15;;;32.50;54.30;;;;;;4954123;29;20127;-76
2022/08/14 08:25:29;;;;;;;8.88;5.22;;;32.10;55.20;;;;;;4921275;29;20079;-76
2022/08/14 08:27:59;;;;;;;8.55;5.07;;;31.80;59.10;;;;;;4936762;29;20420;-76
2022/08/14 08:30:26;;;;;;;6.18;4.90;;;31.70;56.30;;;;;;4918391;29;20043;-76
2022/08/14 08:32:54;;;;;;;7.00;4.82;;;31.70;56.20;;;;;;4917513;29;20134;-76
2022/08/14 08:35:25;;;;;;;9.50;5.10;;;31.50;56.50;;;;;;4917999;29;20090;-76
2022/08/14 08:37:52;;;;;;;6.60;4.82;;;31.60;56.50;;;;;;4947447;28;20079;-76
2022/08/14 08:40:28;;;;;;;8.02;5.20;;;31.70;56.70;;;;;;4955078;29;20122;-76
2022/08/14 08:42:54;;;;;;;11.35;5.28;;;31.90;56.60;;;;;;4955524;29;20051;-75
2022/08/14 08:45:20;;;;;;;7.47;4.93;;;31.90;56.00;;;;;;4955154;29;20061;-77
2022/08/14 08:47:47;;;;;;;8.93;5.18;;;31.50;56.10;;;;;;4954772;29;20055;-77
2022/08/14 08:50:23;;;;;;;6.60;4.70;;;31.50;56.90;;;;;;4937624;29;20051;-78
2022/08/14 08:52:51;;;;;;;6.60;4.88;;;31.70;57.50;;;;;;4937928;29;20055;-78
2022/08/14 08:55:30;;;;;;;7.95;4.80;;;31.50;56.50;;;;;;4921914;29;20043;-77
2022/08/14 08:58:08;;;;;;;11.90;4.85;;;31.50;57.00;;;;;;4954130;29;20051;-79
2022/08/14 09:00:35;;;;;;;7.68;4.90;;;31.70;56.40;;;;;;4937214;29;20067;-76
2022/08/14 09:03:14;;;;;;;6.63;5.00;;;31.60;56.50;;;;;;4954816;29;20411;-76
2022/08/14 09:05:53;;;;;;;9.10;5.18;;;31.50;56.30;;;;;;4954904;29;20101;-77
2022/08/14 09:08:25;;;;;;;6.15;5.05;;;31.60;56.60;;;;;;4937272;29;20487;-75
2022/08/14 09:10:52;;;;;;;6.85;5.13;;;31.70;56.80;;;;;;4953366;29;20174;-76
2022/08/14 09:13:19;;;;;;;8.70;5.32;;;31.80;56.80;;;;;;4954986;29;20055;-76
2022/08/14 09:15:46;;;;;;;5.75;5.00;;;31.90;56.40;;;;;;4937446;29;20047;-76
2022/08/14 09:18:14;;;;;;;7.63;5.18;;;31.90;56.40;;;;;;4921261;29;20559;-76
2022/08/14 09:20:41;;;;;;;6.70;4.85;;;32.20;56.50;;;;;;4954526;29;20043;-76
2022/08/14 09:23:09;;;;;;;7.35;5.10;;;32.10;56.20;;;;;;4937087;29;20065;-75
2022/08/14 09:25:35;;;;;;;5.78;5.18;;;31.90;56.00;;;;;;4952997;29;20051;-75
2022/08/14 09:28:03;;;;;;;5.85;5.07;;;31.70;56.50;;;;;;4937254;29;20054;-75
2022/08/14 09:30:31;;;;;;;8.70;4.97;;;31.70;56.70;;;;;;4954180;29;20059;-75
2022/08/14 09:33:02;;;;;;;9.50;5.10;;;31.80;56.80;;;;;;4952680;29;20050;-75
2022/08/14 09:35:50;;;;;;;8.50;5.88;;;31.80;57.10;;;;;;4952772;29;20503;-77
2022/08/14 09:38:45;;;;;;;8.00;5.50;;;31.80;57.70;;;;;;4954208;29;20488;-76
2022/08/14 09:41:10;;;;;;;;;;;31.70;56.50;;;;;;4936927;29;20051;-77
2022/08/14 09:43:52;;;;;;;7.78;5.32;;;31.60;57.00;;;;;;4952942;29;20295;-77
2022/08/14 09:46:20;;;;;;;12.13;5.82;;;31.60;57.00;;;;;;4953046;29;20121;-77
2022/08/14 09:48:56;;;;;;;7.45;5.45;;;31.50;56.80;;;;;;4952599;29;20054;-76
2022/08/14 09:51:23;;;;;;;8.02;5.38;;;31.30;57.40;;;;;;4953834;29;20054;-76
2022/08/14 09:54:08;;;;;;;6.57;5.40;;;31.50;57.30;;;;;;4936784;29;20070;-76
2022/08/14 09:56:49;;;;;;;7.10;5.38;;;31.70;56.70;;;;;;4936454;29;20039;-76
2022/08/14 09:59:21;;;;;;;7.32;5.47;;;31.70;56.70;;;;;;4953970;29;20492;-76
2022/08/14 10:01:48;;;;;;;8.52;5.60;;;31.70;56.80;;;;;;4936392;29;20106;-75
2022/08/14 10:04:23;;;;;;;7.85;5.25;;;31.70;56.40;;;;;;4953851;29;20080;-76
2022/08/14 10:06:50;;;;;;;8.27;4.90;;;31.70;56.40;;;;;;4952701;29;20082;-76
2022/08/14 10:09:16;;;;;;;7.43;5.07;;;32.90;57.10;;;;;;4920853;29;20106;-77
2022/08/14 10:11:54;;;;;;;7.88;5.53;;;31.90;56.20;;;;;;4953969;29;20054;-77
2022/08/14 10:14:23;;;;;;;7.32;5.28;;;31.70;56.70;;;;;;4952850;29;20054;-78
2022/08/14 10:16:55;;;;;;;6.47;5.00;;;32.60;56.80;;;;;;4953524;29;20054;-77
2022/08/14 10:19:27;;;;;;;5.22;4.50;;;31.70;56.80;;;;;;4952391;29;20047;-76
2022/08/14 10:21:59;;;;;;;8.52;5.05;;;31.90;56.10;;;;;;4952635;29;20051;-75
2022/08/14 10:24:28;;;;;;;8.40;5.28;;;31.80;55.50;;;;;;4952449;29;20089;-76
2022/08/14 10:26:57;;;;;;;7.72;5.00;;;31.70;55.10;;;;;;4953197;29;20062;-77
2022/08/14 10:29:39;;;;;;;8.35;5.28;;;31.70;55.70;;;;;;4951082;29;20090;-76
2022/08/14 10:32:08;;;;;;;5.65;4.90;;;31.70;55.50;;;;;;4936565;29;20047;-78
2022/08/14 10:34:38;;;;;;;5.60;4.90;;;31.70;55.80;;;;;;4952752;29;20051;-79
2022/08/14 10:37:09;;;;;;;5.38;4.88;;;31.70;56.00;;;;;;4953918;29;20062;-79
2022/08/14 10:39:40;;;;;;;7.15;5.40;;;31.90;55.60;;;;;;4936735;29;20075;-79
2022/08/14 10:42:09;;;;;;;5.78;4.88;;;31.90;55.60;;;;;;4950953;29;20059;-79
2022/08/14 10:44:46;;;;;;;7.53;4.28;;;31.70;54.50;;;;;;4935601;29;20134;-78
2022/08/14 10:47:13;;;;;;;7.03;4.70;;;31.70;55.20;;;;;;4938744;29;20051;-79
2022/08/14 10:49:54;;;;;;;6.03;4.80;;;31.90;56.20;;;;;;4952780;29;20043;-79
2022/08/14 10:52:24;;;;;;;5.25;4.70;;;31.70;57.20;;;;;;4935161;29;20066;-79
2022/08/14 10:54:51;;;;;;;7.53;4.72;;;31.80;54.80;;;;;;4920102;29;20039;-79
2022/08/14 10:57:23;;;;;;;7.68;4.50;;;31.70;55.80;;;;;;4935320;29;20052;-79
2022/08/14 10:59:54;;;;;;;6.68;4.80;;;31.00;54.40;;;;;;4952308;29;20054;-79
2022/08/14 11:02:36;;;;;;;8.23;4.75;;;32.10;56.20;;;;;;4950654;29;20047;-78
2022/08/14 11:05:02;;;;;;;6.85;5.10;;;;;;;;;;4935703;29;20468;-79
2022/08/14 11:07:28;;;;;;;5.30;4.78;;;32.20;54.00;;;;;;4958673;28;20090;-79
2022/08/14 11:09:59;;;;;;;5.45;4.80;;;32.20;55.40;;;;;;4916244;29;20440;-79
2022/08/14 11:12:48;;;;;;;6.13;4.30;;;32.40;53.30;;;;;;4934679;29;20054;-79
2022/08/14 11:15:17;;;;;;;6.35;4.80;;;32.40;53.20;;;;;;4916832;29;20690;-79
2022/08/14 11:17:46;;;;;;;7.05;4.75;;;32.70;55.90;;;;;;4916507;29;20046;-79
2022/08/14 11:20:14;;;;;;;5.32;4.78;;;33.00;54.70;;;;;;4916653;29;20531;-79
2022/08/14 11:22:41;;;;;;;6.72;4.43;;;;;;;;;;4916731;29;20087;-79
2022/08/14 11:25:10;;;;;;;5.47;4.57;;;32.10;53.60;;;;;;4934127;29;20067;-79
2022/08/14 11:27:39;;;;;;;5.15;4.30;;;32.20;53.20;;;;;;4933418;29;20126;-80
2022/08/14 11:30:15;;;;;;;6.57;4.22;;;32.40;55.30;;;;;;4920482;29;20079;-79
2022/08/14 11:32:43;;;;;;;8.00;4.50;;;32.30;53.60;;;;;;4937168;29;20114;-79
2022/08/14 11:35:15;;;;;;;4.90;4.40;;;32.50;54.10;;;;;;4919665;29;20054;-80
2022/08/14 11:38:00;;;;;;;5.30;3.97;;;32.60;53.80;;;;;;4903775;29;20047;-79
2022/08/14 11:40:28;;;;;;;4.70;4.20;;;32.70;53.10;;;;;;4937018;29;20508;-78
2022/08/14 11:42:55;;;;;;;4.93;3.90;;;32.80;51.40;;;;;;4920243;29;20047;-79
2022/08/14 11:45:23;;;;;;;10.27;4.20;;;32.80;52.30;;;;;;4904538;29;20063;-79
2022/08/14 11:47:51;;;;;;;8.27;4.30;;;32.70;53.00;;;;;;4920428;29;20091;-78
2022/08/14 11:50:21;;;;;;;5.47;4.10;;;32.70;52.40;;;;;;4936973;29;20055;-79
2022/08/14 11:52:47;;;;;;;5.68;4.15;;;;;;;;;;4937224;29;20039;-79
2022/08/14 11:55:14;;;;;;;6.95;4.03;;;32.80;51.20;;;;;;4935888;29;20402;-79
2022/08/14 11:57:42;;;;;;;6.05;4.18;;;32.90;54.20;;;;;;4937017;29;20504;-79
2022/08/14 12:00:17;;;;;;;5.93;4.50;;;33.00;53.20;;;;;;4918997;29;20047;-78
2022/08/14 12:02:54;;;;;;;4.30;3.88;;;32.90;51.50;;;;;;4920377;29;20127;-79
2022/08/14 12:05:35;;;;;;;9.30;4.60;;;35.30;54.40;;;;;;4904204;29;20043;-78
2022/08/14 12:08:06;;;;;;;5.75;4.75;;;33.00;51.20;;;;;;4936947;29;20055;-79
2022/08/14 12:10:33;;;;;;;5.90;4.80;;;33.00;51.70;;;;;;4920000;29;20050;-79
2022/08/14 12:13:10;;;;;;;5.75;4.40;;;32.90;51.60;;;;;;4903652;29;20051;-79
2022/08/14 12:15:36;;;;;;;5.22;4.10;;;33.10;51.80;;;;;;4919357;29;20115;-78
2022/08/14 12:18:03;;;;;;;6.50;4.45;;;33.30;51.30;;;;;;4936562;29;20044;-79
2022/08/14 12:20:31;;;;;;;5.15;4.38;;;33.40;51.10;;;;;;4934707;29;20496;-79
2022/08/14 12:22:57;;;;;;;4.95;4.25;;;33.40;50.70;;;;;;4937192;29;20126;-78
2022/08/14 12:25:23;;;;;;;6.55;4.47;;;33.50;51.10;;;;;;4919255;29;20103;-79
2022/08/14 12:27:52;;;;;;;4.82;4.30;;;33.70;50.80;;;;;;4937319;29;20047;-78
2022/08/14 12:30:42;;;;;;;6.43;4.50;;;33.80;50.10;;;;;;4919596;29;20087;-79
2022/08/14 12:33:31;;;;;;;8.52;5.00;;;33.90;50.20;;;;;;4935672;29;20047;-79
2022/08/14 12:35:59;;;;;;;8.65;4.80;;;34.00;49.60;;;;;;4919703;29;20054;-79
2022/08/14 12:38:34;;;;;;;7.90;4.78;;;34.90;50.50;;;;;;4918478;29;20059;-79
2022/08/14 12:41:00;;;;;;;9.20;5.10;;;33.90;50.00;;;;;;4919453;29;20043;-78
2022/08/14 12:43:28;;;;;;;7.10;4.95;;;33.80;50.10;;;;;;4936383;29;20130;-79
2022/08/14 12:45:54;;;;;;;6.63;4.85;;;33.30;51.10;;;;;;4935931;29;20052;-79
2022/08/14 12:48:21;;;;;;;7.22;4.85;;;33.00;50.80;;;;;;4936144;29;20050;-79
2022/08/14 12:50:50;;;;;;;9.55;4.80;;;33.00;51.20;;;;;;4919207;29;20106;-79
2022/08/14 12:53:17;;;;;;;6.88;4.75;;;32.80;51.00;;;;;;4919694;29;20047;-79
2022/08/14 12:55:44;;;;;;;6.43;4.70;;;32.70;51.20;;;;;;4919672;29;20168;-79
2022/08/14 12:58:10;;;;;;;7.00;4.40;;;31.20;50.70;;;;;;4936079;29;20051;-79
2022/08/14 13:00:45;;;;;;;9.93;4.70;;;32.90;51.30;;;;;;4935751;29;20063;-79
2022/08/14 13:03:26;;;;;;;9.55;4.80;;;33.10;50.70;;;;;;4919614;29;20107;-79
2022/08/14 13:05:52;;;;;;;5.80;4.47;;;33.30;50.80;;;;;;4919369;29;20044;-78